Time;durP1;ratioP1;P1;durP2;ratioP2;P2;SDS_P1;SDS_P2;PMS_P1;PMS_P2;Temp;Humidity;BMP_temperature;BMP_pressure;BME280_temperature;BME280_humidity;BME280_pressure;Samples;Min_cycle;Max_cycle;Signal;HPM_P1;HPM_P2
2021/07/12 00:00:45;;;;;;;7.40;6.00;;;;;;;;;;3589886;39;20040;-66
2021/07/12 00:03:10;;;;;;;6.87;6.17;;;;;;;;;;3589597;40;20465;-66
2021/07/12 00:05:35;;;;;;;10.63;6.30;;;;;;;;;;3589634;40;20028;-66
2021/07/12 00:08:00;;;;;;;7.57;6.00;;;;;;;;;;3589943;40;20047;-67
2021/07/12 00:10:26;;;;;;;14.40;6.70;;;;;;;;;;3589706;40;20262;-66
2021/07/12 00:12:51;;;;;;;6.80;6.03;;;;;;;;;;3589920;40;20068;-62
2021/07/12 00:15:16;;;;;;;8.70;6.83;;;;;;;;;;3589593;40;20068;-62
2021/07/12 00:17:41;;;;;;;10.27;6.60;;;;;;;;;;3589180;40;20032;-62
2021/07/12 00:20:06;;;;;;;11.20;6.80;;;;;;;;;;3587731;40;20353;-62
2021/07/12 00:22:32;;;;;;;10.03;7.13;;;;;;;;;;3589382;40;20028;-62
2021/07/12 00:24:57;;;;;;;7.23;6.43;;;;;;;;;;3589760;39;20068;-61
2021/07/12 00:27:22;;;;;;;9.37;6.73;;;;;;;;;;3586570;40;20020;-61
2021/07/12 00:29:47;;;;;;;8.10;6.97;;;;;;;;;;3590353;39;20028;-62
2021/07/12 00:32:13;;;;;;;7.77;6.97;;;;;;;;;;3591067;40;20016;-61
2021/07/12 00:34:38;;;;;;;9.73;7.40;;;;;;;;;;3590580;40;20036;-65
2021/07/12 00:37:03;;;;;;;9.97;7.00;;;;;;;;;;3590049;40;20029;-66
2021/07/12 00:39:29;;;;;;;9.35;7.10;;;;;;;;;;3590153;40;20020;-66
2021/07/12 00:41:54;;;;;;;8.20;7.28;;;;;;;;;;3590761;39;20121;-66
2021/07/12 00:44:19;;;;;;;9.03;7.20;;;;;;;;;;3591014;40;20081;-66
2021/07/12 00:46:46;;;;;;;13.48;7.97;;;;;;;;;;3589543;40;20076;-66
2021/07/12 00:49:11;;;;;;;10.80;7.57;;;;;;;;;;3591082;40;20690;-62
2021/07/12 00:51:36;;;;;;;10.00;7.90;;;;;;;;;;3590504;39;20041;-62
2021/07/12 00:54:03;;;;;;;14.95;8.05;;;;;;;;;;3589316;40;20036;-62
2021/07/12 00:56:31;;;;;;;8.88;7.90;;;;;;;;;;3589913;40;20029;-62
2021/07/12 00:59:01;;;;;;;9.30;7.57;;;;;;;;;;3589147;40;20046;-65
2021/07/12 01:01:29;;;;;;;8.57;7.63;;;;;;;;;;3589470;40;20887;-66
2021/07/12 01:03:54;;;;;;;10.95;8.50;;;;;;;;;;3590583;39;20306;-66
2021/07/12 01:06:20;;;;;;;9.38;7.88;;;;;;;;;;3589065;40;20137;-66
2021/07/12 01:08:46;;;;;;;14.65;8.32;;;;;;;;;;3588543;40;20028;-66
2021/07/12 01:11:11;;;;;;;12.33;8.40;;;;;;;;;;3590568;40;20351;-66
2021/07/12 01:13:36;;;;;;;12.60;8.17;;;;;;;;;;3589477;40;20140;-66
2021/07/12 01:16:03;;;;;;;13.02;8.57;;;;;;;;;;3589349;40;20036;-66
2021/07/12 01:18:35;;;;;;;12.48;8.70;;;;;;;;;;3589753;40;20028;-66
2021/07/12 01:21:04;;;;;;;12.00;8.10;;;;;;;;;;3590438;40;20028;-66
2021/07/12 01:23:29;;;;;;;11.77;7.88;;;;;;;;;;3591005;39;21031;-66
2021/07/12 01:25:55;;;;;;;10.43;8.20;;;;;;;;;;3591096;40;20028;-66
2021/07/12 01:28:21;;;;;;;8.93;8.02;;;;;;;;;;3590721;39;20028;-66
2021/07/12 01:30:47;;;;;;;12.02;8.27;;;;;;;;;;3590574;39;20063;-66
2021/07/12 01:33:12;;;;;;;9.77;8.50;;;;;;;;;;3589543;40;20416;-66
2021/07/12 01:35:39;;;;;;;13.25;8.82;;;;;;;;;;3588913;39;20044;-66
2021/07/12 01:38:04;;;;;;;16.33;8.68;;;;;;;;;;3589160;40;20274;-66
2021/07/12 01:40:30;;;;;;;10.93;8.60;;;;;;;;;;3589297;40;20107;-66
2021/07/12 01:42:56;;;;;;;10.52;7.97;;;;;;;;;;3588751;40;20483;-66
2021/07/12 01:45:23;;;;;;;12.63;8.82;;;;;;;;;;3589176;40;20036;-66
2021/07/12 01:47:49;;;;;;;10.18;8.02;;;;;;;;;;3580895;40;20039;-66
2021/07/12 01:50:15;;;;;;;10.20;8.07;;;;;;;;;;3588161;40;20060;-66
2021/07/12 01:52:44;;;;;;;12.13;7.90;;;;;;;;;;3588814;40;20101;-66
2021/07/12 01:55:11;;;;;;;10.82;8.20;;;;;;;;;;3588787;40;20031;-65
2021/07/12 01:57:40;;;;;;;11.02;8.18;;;;;;;;;;3589508;40;20415;-66
2021/07/12 02:00:06;;;;;;;9.23;7.93;;;;;;;;;;3589282;40;20024;-65
2021/07/12 02:02:45;;;;;;;11.07;7.78;;;;;;;;;;3590341;40;20033;-67
2021/07/12 02:05:12;;;;;;;12.10;8.27;;;;;;;;;;3587725;40;20040;-66
2021/07/12 02:07:37;;;;;;;8.75;7.80;;;;;;;;;;3590538;40;20040;-67
2021/07/12 02:10:04;;;;;;;12.18;8.00;;;;;;;;;;3590052;39;20032;-66
2021/07/12 02:12:37;;;;;;;12.50;8.20;;;;;;;;;;3588076;40;20059;-66
2021/07/12 02:15:05;;;;;;;8.48;7.53;;;;;;;;;;3587981;40;20059;-66
2021/07/12 02:17:35;;;;;;;13.27;8.02;;;;;;;;;;3586468;40;20427;-66
2021/07/12 02:20:04;;;;;;;14.35;8.25;;;;;;;;;;3589211;40;20417;-66
2021/07/12 02:22:31;;;;;;;10.35;7.90;;;;;;;;;;3588539;40;20071;-66
2021/07/12 02:25:02;;;;;;;13.88;8.32;;;;;;;;;;3587897;40;20417;-66
2021/07/12 02:27:28;;;;;;;11.35;7.80;;;;;;;;;;3589347;40;20043;-66
2021/07/12 02:29:53;;;;;;;10.98;8.68;;;;;;;;;;3587786;40;20989;-67
2021/07/12 02:32:21;;;;;;;9.90;7.70;;;;;;;;;;3591000;39;20698;-66
2021/07/12 02:34:47;;;;;;;14.93;8.02;;;;;;;;;;3590560;39;20032;-66
2021/07/12 02:37:13;;;;;;;11.57;8.13;;;;;;;;;;3590992;39;20120;-66
2021/07/12 02:39:38;;;;;;;14.93;8.33;;;;;;;;;;3590932;40;20634;-66
2021/07/12 02:42:05;;;;;;;12.73;8.05;;;;;;;;;;3589185;40;20091;-66
2021/07/12 02:44:32;;;;;;;10.90;7.40;;;;;;;;;;3588637;40;20032;-66
2021/07/12 02:46:58;;;;;;;11.13;7.70;;;;;;;;;;3589390;39;20043;-66
2021/07/12 02:49:23;;;;;;;13.85;8.45;;;;;;;;;;3588789;40;20030;-66
2021/07/12 02:51:49;;;;;;;16.08;8.20;;;;;;;;;;3589280;40;20044;-66
2021/07/12 02:54:14;;;;;;;9.95;8.07;;;;;;;;;;3589936;40;20024;-66
2021/07/12 02:56:41;;;;;;;11.82;8.32;;;;;;;;;;3588579;40;20032;-66
2021/07/12 02:59:07;;;;;;;13.57;8.73;;;;;;;;;;3590420;39;20051;-66
2021/07/12 03:01:32;;;;;;;9.63;7.93;;;;;;;;;;3589568;40;20032;-66
2021/07/12 03:03:57;;;;;;;10.80;8.52;;;;;;;;;;3590487;40;20024;-66
2021/07/12 03:06:24;;;;;;;11.25;8.10;;;;;;;;;;3590761;39;20035;-66
2021/07/12 03:08:50;;;;;;;11.25;7.85;;;;;;;;;;3589162;40;20020;-66
2021/07/12 03:11:15;;;;;;;9.45;8.38;;;;;;;;;;3590633;39;20062;-66
2021/07/12 03:13:41;;;;;;;10.93;8.17;;;;;;;;;;3590967;40;20033;-66
2021/07/12 03:16:06;;;;;;;10.80;8.60;;;;;;;;;;3590538;40;20038;-66
2021/07/12 03:18:31;;;;;;;10.98;8.13;;;;;;;;;;3589112;40;20024;-66
2021/07/12 03:20:59;;;;;;;10.88;8.02;;;;;;;;;;3590121;39;20117;-66
2021/07/12 03:23:26;;;;;;;13.38;7.38;;;;;;;;;;3587717;40;20041;-66
2021/07/12 03:25:51;;;;;;;8.77;7.78;;;;;;;;;;3590188;39;20039;-66
2021/07/12 03:28:17;;;;;;;8.90;7.55;;;;;;;;;;3580427;40;20063;-67
2021/07/12 03:30:43;;;;;;;8.15;7.13;;;;;;;;;;3588836;40;20036;-66
2021/07/12 03:33:09;;;;;;;10.98;7.38;;;;;;;;;;3588594;40;20118;-67
2021/07/12 03:35:36;;;;;;;14.77;7.95;;;;;;;;;;3588744;40;20110;-66
2021/07/12 03:38:01;;;;;;;10.15;7.30;;;;;;;;;;3590026;39;20036;-67
2021/07/12 03:40:27;;;;;;;9.02;7.15;;;;;;;;;;3589121;40;20600;-67
2021/07/12 03:42:52;;;;;;;10.02;7.43;;;;;;;;;;3588629;40;20622;-66
2021/07/12 03:45:19;;;;;;;11.43;7.30;;;;;;;;;;3588763;40;20070;-66
2021/07/12 03:47:47;;;;;;;11.50;7.10;;;;;;;;;;3580315;40;20039;-66
2021/07/12 03:50:13;;;;;;;9.63;7.32;;;;;;;;;;3579906;40;20401;-66
2021/07/12 03:52:38;;;;;;;10.73;7.50;;;;;;;;;;3589854;40;20039;-66
2021/07/12 03:55:04;;;;;;;8.40;7.40;;;;;;;;;;3589515;40;20355;-66
2021/07/12 03:57:29;;;;;;;9.00;7.27;;;;;;;;;;3580510;40;20393;-66
2021/07/12 03:59:54;;;;;;;9.63;6.90;;;;;;;;;;3589650;40;20329;-66
2021/07/12 04:02:19;;;;;;;9.20;7.30;;;;;;;;;;3590045;40;20020;-66
2021/07/12 04:04:45;;;;;;;9.27;7.37;;;;;;;;;;3589682;40;20028;-66
2021/07/12 04:07:10;;;;;;;8.60;7.27;;;;;;;;;;3589750;40;20283;-66
2021/07/12 04:09:35;;;;;;;10.27;7.10;;;;;;;;;;3589809;40;20036;-66
2021/07/12 04:12:01;;;;;;;8.33;7.30;;;;;;;;;;3588999;40;20024;-66
2021/07/12 04:14:27;;;;;;;12.70;7.22;;;;;;;;;;3590088;39;20310;-66
2021/07/12 04:16:52;;;;;;;8.13;7.05;;;;;;;;;;3589712;40;20109;-66
2021/07/12 04:19:17;;;;;;;9.80;7.80;;;;;;;;;;3589911;40;20040;-66
2021/07/12 04:21:42;;;;;;;13.82;7.43;;;;;;;;;;3589445;39;20043;-66
2021/07/12 04:24:08;;;;;;;9.80;7.33;;;;;;;;;;3589131;40;20029;-66
2021/07/12 04:26:33;;;;;;;9.35;7.38;;;;;;;;;;3589584;40;20250;-66
2021/07/12 04:28:58;;;;;;;10.57;8.57;;;;;;;;;;3588333;40;20027;-66
2021/07/12 04:31:23;;;;;;;11.13;7.53;;;;;;;;;;3589427;40;20035;-67
2021/07/12 04:33:49;;;;;;;9.63;8.33;;;;;;;;;;3589150;40;20678;-66
2021/07/12 04:36:14;;;;;;;13.10;8.27;;;;;;;;;;3589661;40;20036;-65
2021/07/12 04:38:39;;;;;;;11.10;8.20;;;;;;;;;;3589800;40;20919;-66
2021/07/12 04:41:04;;;;;;;13.53;8.83;;;;;;;;;;3588937;40;20072;-67
2021/07/12 04:43:30;;;;;;;13.93;9.10;;;;;;;;;;3588060;40;21141;-66
2021/07/12 04:45:55;;;;;;;9.38;8.20;;;;;;;;;;3587996;40;20028;-66
2021/07/12 04:48:20;;;;;;;10.07;8.63;;;;;;;;;;3589075;40;20317;-66
2021/07/12 04:50:45;;;;;;;13.30;9.30;;;;;;;;;;3588218;40;20516;-66
2021/07/12 04:53:10;;;;;;;12.30;8.77;;;;;;;;;;3589205;40;20753;-66
2021/07/12 04:55:36;;;;;;;11.03;8.60;;;;;;;;;;3589113;40;20036;-66
2021/07/12 04:58:01;;;;;;;10.68;9.13;;;;;;;;;;3589233;40;20032;-66
2021/07/12 05:00:27;;;;;;;13.05;9.38;;;;;;;;;;3589177;39;20117;-66
2021/07/12 05:02:52;;;;;;;12.18;8.50;;;;;;;;;;3589022;40;20028;-62
2021/07/12 05:05:18;;;;;;;13.87;8.83;;;;;;;;;;3588513;40;20040;-62
2021/07/12 05:07:43;;;;;;;11.20;8.52;;;;;;;;;;3589272;40;20420;-62
2021/07/12 05:10:09;;;;;;;10.57;7.13;;;;;;;;;;3588589;39;20036;-62
2021/07/12 05:12:34;;;;;;;12.30;8.50;;;;;;;;;;3589464;40;20028;-62
2021/07/12 05:14:59;;;;;;;12.37;8.17;;;;;;;;;;3590858;40;20036;-62
2021/07/12 05:17:24;;;;;;;10.43;8.10;;;;;;;;;;3581203;40;20035;-62
2021/07/12 05:19:49;;;;;;;9.67;7.30;;;;;;;;;;3590933;40;20617;-62
2021/07/12 05:22:14;;;;;;;8.97;7.90;;;;;;;;;;3589228;40;20036;-62
2021/07/12 05:24:40;;;;;;;10.63;7.60;;;;;;;;;;3590880;40;20080;-62
2021/07/12 05:27:05;;;;;;;9.37;7.40;;;;;;;;;;3590834;40;20058;-62
2021/07/12 05:29:33;;;;;;;9.17;7.87;;;;;;;;;;3591145;40;20036;-62
2021/07/12 05:31:59;;;;;;;8.02;7.10;;;;;;;;;;3579594;40;20102;-62
2021/07/12 05:34:24;;;;;;;7.87;6.60;;;;;;;;;;3589964;40;20450;-62
2021/07/12 05:36:49;;;;;;;8.80;7.40;;;;;;;;;;3590375;40;20043;-62
2021/07/12 05:39:15;;;;;;;10.40;7.33;;;;;;;;;;3590157;40;20269;-62
2021/07/12 05:41:40;;;;;;;11.13;7.10;;;;;;;;;;3590183;40;20039;-61
2021/07/12 05:44:06;;;;;;;9.93;7.10;;;;;;;;;;3576241;40;20076;-62
2021/07/12 05:46:31;;;;;;;7.93;7.13;;;;;;;;;;3589859;40;20432;-62
2021/07/12 05:48:56;;;;;;;9.17;7.00;;;;;;;;;;3589865;40;20028;-62
2021/07/12 05:51:22;;;;;;;9.23;7.23;;;;;;;;;;3589792;40;20032;-62
2021/07/12 05:53:47;;;;;;;9.27;6.97;;;;;;;;;;3589124;40;20031;-62
2021/07/12 05:56:16;;;;;;;8.77;7.18;;;;;;;;;;3588609;40;20601;-62
2021/07/12 05:58:41;;;;;;;11.25;7.13;;;;;;;;;;3588710;40;20039;-62
2021/07/12 06:01:06;;;;;;;11.43;6.93;;;;;;;;;;3588621;40;20032;-62
2021/07/12 06:03:32;;;;;;;9.50;6.50;;;;;;;;;;3588592;40;20884;-62
2021/07/12 06:05:57;;;;;;;8.48;6.55;;;;;;;;;;3588417;40;20753;-62
2021/07/12 06:08:22;;;;;;;10.33;6.57;;;;;;;;;;3589991;40;20515;-62
2021/07/12 06:10:47;;;;;;;10.53;6.43;;;;;;;;;;3590205;40;20383;-62
2021/07/12 06:13:13;;;;;;;7.68;6.10;;;;;;;;;;3590128;39;20035;-62
2021/07/12 06:15:39;;;;;;;13.37;6.33;;;;;;;;;;3589280;40;20036;-62
2021/07/12 06:18:04;;;;;;;10.75;5.90;;;;;;;;;;3580818;40;20032;-61
2021/07/12 06:20:30;;;;;;;5.80;5.27;;;;;;;;;;3590243;40;20032;-61
2021/07/12 06:22:56;;;;;;;5.57;5.07;;;;;;;;;;3580490;40;20052;-61
2021/07/12 06:25:22;;;;;;;8.82;4.93;;;;;;;;;;3591109;39;20137;-61
2021/07/12 06:27:50;;;;;;;5.10;4.57;;;;;;;;;;3592215;40;20032;-62
2021/07/12 06:30:17;;;;;;;5.60;4.35;;;;;;;;;;3591456;39;20077;-62
2021/07/12 06:32:42;;;;;;;4.50;4.10;;;;;;;;;;3590972;39;20027;-66
2021/07/12 06:35:07;;;;;;;4.57;4.07;;;;;;;;;;3590231;39;20043;-63
2021/07/12 06:37:33;;;;;;;6.93;4.23;;;;;;;;;;3588825;40;20035;-63
2021/07/12 06:39:58;;;;;;;6.77;4.03;;;;;;;;;;3589260;40;20500;-62
2021/07/12 06:42:23;;;;;;;6.57;4.33;;;;;;;;;;3588846;40;20032;-62
2021/07/12 06:44:59;;;;;;;;;;;;;;;;;;;;;
2021/07/12 06:47:28;;;;;;;4.95;3.90;;;;;;;;;;3587557;40;20064;-62
2021/07/12 06:50:00;;;;;;;4.50;3.90;;;;;;;;;;3589549;40;20125;-62
2021/07/12 06:52:26;;;;;;;4.00;3.60;;;;;;;;;;3589775;40;20024;-63
2021/07/12 06:55:01;;;;;;;5.45;3.85;;;;;;;;;;3590763;39;20032;-63
2021/07/12 06:57:29;;;;;;;5.60;4.00;;;;;;;;;;3589507;39;20114;-63
2021/07/12 06:59:57;;;;;;;6.57;4.00;;;;;;;;;;3581948;40;20036;-62
2021/07/12 07:02:36;;;;;;;;;;;;;;;;;;;;;
2021/07/12 07:05:06;;;;;;;6.10;3.90;;;;;;;;;;3590102;40;20586;-67
2021/07/12 07:07:35;;;;;;;3.95;3.55;;;;;;;;;;3590558;40;20036;-66
2021/07/12 07:10:00;;;;;;;9.63;4.03;;;;;;;;;;3586807;40;20055;-65
2021/07/12 07:12:25;;;;;;;7.07;3.77;;;;;;;;;;3589184;40;20034;-65
2021/07/12 07:14:51;;;;;;;9.50;3.77;;;;;;;;;;3590863;40;20039;-65
2021/07/12 07:17:16;;;;;;;4.43;3.60;;;;;;;;;;3590912;40;20772;-64
2021/07/12 07:19:41;;;;;;;5.70;3.80;;;;;;;;;;3590779;40;20258;-65
2021/07/12 07:22:06;;;;;;;4.63;3.70;;;;;;;;;;3590513;40;20277;-65
2021/07/12 07:24:50;;;;;;;8.15;3.50;;;;;;;;;;3590553;39;20285;-64
2021/07/12 07:27:17;;;;;;;4.60;3.20;;;;;;;;;;3590674;40;20104;-63
2021/07/12 07:29:42;;;;;;;3.75;3.22;;;;;;;;;;3587687;40;20358;-64
2021/07/12 07:32:07;;;;;;;5.33;3.47;;;;;;;;;;3589855;40;20028;-66
2021/07/12 07:34:33;;;;;;;3.83;3.30;;;;;;;;;;3589975;39;20035;-66
2021/07/12 07:36:58;;;;;;;14.15;8.55;;;;;;;;;;3590241;40;20033;-66
2021/07/12 07:39:23;;;;;;;5.53;4.40;;;;;;;;;;3590424;40;20027;-66
2021/07/12 07:41:49;;;;;;;7.13;4.40;;;;;;;;;;3590489;40;20024;-66
2021/07/12 07:44:14;;;;;;;12.90;8.63;;;;;;;;;;3589267;40;20041;-66
2021/07/12 07:46:39;;;;;;;5.55;4.75;;;;;;;;;;3588758;40;20039;-66
2021/07/12 07:49:07;;;;;;;6.13;4.83;;;;;;;;;;3590727;40;20250;-65
2021/07/12 07:51:32;;;;;;;7.20;4.07;;;;;;;;;;3587269;39;20032;-64
2021/07/12 07:53:57;;;;;;;5.93;4.43;;;;;;;;;;3589866;40;20032;-64
2021/07/12 07:56:23;;;;;;;7.32;3.90;;;;;;;;;;3590340;39;20024;-64
2021/07/12 07:58:48;;;;;;;5.20;4.13;;;;;;;;;;3589902;40;20463;-60
2021/07/12 08:01:13;;;;;;;4.93;4.00;;;;;;;;;;3590167;39;20321;-60
2021/07/12 08:03:38;;;;;;;6.93;5.03;;;;;;;;;;3588748;40;20293;-60
2021/07/12 08:06:04;;;;;;;11.57;6.93;;;;;;;;;;3589798;40;20039;-60
2021/07/12 08:08:30;;;;;;;11.20;7.30;;;;;;;;;;3588631;40;20270;-60
2021/07/12 08:10:55;;;;;;;6.53;5.13;;;;;;;;;;3589502;39;20712;-61
2021/07/12 08:13:21;;;;;;;11.13;8.48;;;;;;;;;;3589134;40;20035;-60
2021/07/12 08:15:46;;;;;;;8.20;5.53;;;;;;;;;;3589065;40;20062;-61
2021/07/12 08:18:11;;;;;;;14.50;10.33;;;;;;;;;;3590557;40;20028;-60
2021/07/12 08:20:36;;;;;;;5.33;4.67;;;;;;;;;;3589732;39;20117;-61
2021/07/12 08:23:02;;;;;;;6.38;4.43;;;;;;;;;;3589802;40;20243;-60
2021/07/12 08:25:27;;;;;;;8.20;4.47;;;;;;;;;;3590175;40;20036;-61
2021/07/12 08:27:52;;;;;;;5.88;4.70;;;;;;;;;;3577001;40;20120;-61
2021/07/12 08:30:18;;;;;;;7.32;4.72;;;;;;;;;;3580863;40;20456;-60
2021/07/12 08:32:43;;;;;;;5.38;4.88;;;;;;;;;;3589880;40;20020;-61
2021/07/12 08:35:08;;;;;;;5.40;4.90;;;;;;;;;;3590013;40;20055;-61
2021/07/12 08:37:34;;;;;;;5.23;4.73;;;;;;;;;;3590107;40;20026;-61
2021/07/12 08:39:59;;;;;;;5.87;4.63;;;;;;;;;;3589502;40;20028;-60
2021/07/12 08:42:24;;;;;;;10.37;5.43;;;;;;;;;;3590538;40;20035;-61
2021/07/12 08:44:49;;;;;;;9.52;5.72;;;;;;;;;;3589529;39;20258;-61
2021/07/12 08:47:15;;;;;;;7.60;4.73;;;;;;;;;;3590942;39;20039;-60
2021/07/12 08:49:40;;;;;;;5.80;4.53;;;;;;;;;;3590363;40;20043;-61
2021/07/12 08:52:05;;;;;;;6.20;4.60;;;;;;;;;;3590752;40;20027;-61
2021/07/12 08:54:30;;;;;;;7.70;5.23;;;;;;;;;;3589300;40;20028;-61
2021/07/12 08:56:56;;;;;;;5.13;4.63;;;;;;;;;;3591013;40;20024;-61
2021/07/12 08:59:21;;;;;;;5.97;5.37;;;;;;;;;;3590969;40;20495;-62
2021/07/12 09:01:46;;;;;;;13.93;8.53;;;;;;;;;;3590951;40;20031;-61
2021/07/12 09:04:11;;;;;;;7.63;6.03;;;;;;;;;;3590632;40;20039;-61
2021/07/12 09:06:36;;;;;;;6.57;5.67;;;;;;;;;;3589931;40;20305;-61
2021/07/12 09:09:05;;;;;;;9.07;5.63;;;;;;;;;;3590517;40;20129;-61
2021/07/12 09:11:30;;;;;;;8.73;5.13;;;;;;;;;;3589701;40;20016;-61
2021/07/12 09:13:55;;;;;;;8.60;4.82;;;;;;;;;;3590863;39;20125;-61
2021/07/12 09:16:21;;;;;;;6.30;4.63;;;;;;;;;;3590432;40;20099;-61
2021/07/12 09:18:46;;;;;;;8.63;5.30;;;;;;;;;;3589488;40;20675;-63
2021/07/12 09:21:11;;;;;;;5.77;4.33;;;;;;;;;;3590291;40;20036;-62
2021/07/12 09:23:36;;;;;;;5.83;4.80;;;;;;;;;;3589693;40;20653;-67
2021/07/12 09:26:03;;;;;;;5.83;5.17;;;;;;;;;;3590491;40;20629;-62
2021/07/12 09:28:28;;;;;;;6.45;5.03;;;;;;;;;;3589223;40;20040;-61
2021/07/12 09:30:53;;;;;;;7.40;5.00;;;;;;;;;;3590964;40;20150;-61
2021/07/12 09:33:18;;;;;;;4.57;4.13;;;;;;;;;;3590629;40;20508;-62
2021/07/12 09:35:44;;;;;;;7.10;4.90;;;;;;;;;;3591250;40;20052;-61
2021/07/12 09:38:09;;;;;;;7.65;5.82;;;;;;;;;;3589766;40;20054;-61
2021/07/12 09:40:34;;;;;;;7.30;6.20;;;;;;;;;;3588763;40;20727;-61
2021/07/12 09:42:59;;;;;;;10.73;6.33;;;;;;;;;;3590624;40;20028;-61
2021/07/12 09:45:28;;;;;;;9.40;6.90;;;;;;;;;;3589207;40;20032;-61
2021/07/12 09:47:53;;;;;;;7.90;5.00;;;;;;;;;;3588837;40;20020;-61
2021/07/12 09:50:18;;;;;;;5.50;4.75;;;;;;;;;;3589635;40;20039;-61
2021/07/12 09:52:44;;;;;;;6.13;4.83;;;;;;;;;;3588550;40;20039;-61
2021/07/12 09:55:09;;;;;;;7.13;4.85;;;;;;;;;;3589738;40;20028;-61
2021/07/12 09:57:34;;;;;;;7.67;4.70;;;;;;;;;;3589861;39;20129;-61
2021/07/12 10:00:01;;;;;;;7.13;4.97;;;;;;;;;;3589272;40;20028;-60
2021/07/12 10:02:26;;;;;;;5.55;4.90;;;;;;;;;;3589359;40;20032;-61
2021/07/12 10:04:53;;;;;;;6.20;5.20;;;;;;;;;;3589606;39;20129;-61
2021/07/12 10:07:18;;;;;;;8.43;6.20;;;;;;;;;;3589724;39;20257;-61
2021/07/12 10:09:43;;;;;;;7.63;6.37;;;;;;;;;;3596191;39;20024;-61
2021/07/12 10:12:08;;;;;;;9.10;7.53;;;;;;;;;;3589525;40;20318;-61
2021/07/12 10:14:33;;;;;;;6.97;5.73;;;;;;;;;;3589343;40;20826;-61
2021/07/12 10:17:00;;;;;;;5.50;5.00;;;;;;;;;;3589673;40;20547;-61
2021/07/12 10:19:25;;;;;;;6.68;5.43;;;;;;;;;;3588954;40;20020;-61
2021/07/12 10:21:50;;;;;;;10.37;5.80;;;;;;;;;;3589004;40;20120;-61
2021/07/12 10:24:15;;;;;;;5.50;5.00;;;;;;;;;;3589142;40;20036;-61
2021/07/12 10:26:41;;;;;;;6.27;5.50;;;;;;;;;;3589646;40;20044;-61
2021/07/12 10:29:06;;;;;;;6.93;6.00;;;;;;;;;;3588383;40;20035;-61
2021/07/12 10:31:31;;;;;;;9.07;7.50;;;;;;;;;;3588750;40;20340;-61
2021/07/12 10:33:56;;;;;;;20.47;14.23;;;;;;;;;;3588170;40;20048;-61
2021/07/12 10:36:21;;;;;;;13.10;8.80;;;;;;;;;;3588793;40;20682;-61
2021/07/12 10:38:48;;;;;;;14.40;10.17;;;;;;;;;;3588326;40;20484;-61
2021/07/12 10:41:13;;;;;;;15.55;10.07;;;;;;;;;;3589414;39;20035;-61
2021/07/12 10:43:39;;;;;;;7.22;5.50;;;;;;;;;;3588686;40;20032;-61
2021/07/12 10:46:04;;;;;;;7.00;5.47;;;;;;;;;;3587948;40;20597;-61
2021/07/12 10:48:29;;;;;;;6.10;5.50;;;;;;;;;;3590095;40;20658;-61
2021/07/12 10:50:54;;;;;;;7.47;5.67;;;;;;;;;;3589660;40;20714;-61
2021/07/12 10:53:22;;;;;;;8.47;5.97;;;;;;;;;;3588962;40;20663;-61
2021/07/12 10:55:47;;;;;;;6.25;5.38;;;;;;;;;;3587806;40;20031;-61
2021/07/12 10:58:12;;;;;;;6.30;4.80;;;;;;;;;;3589715;40;20036;-61
2021/07/12 11:00:37;;;;;;;5.33;4.83;;;;;;;;;;3588723;40;20625;-61
2021/07/12 11:03:02;;;;;;;5.73;4.93;;;;;;;;;;3589195;40;20028;-61
2021/07/12 11:05:28;;;;;;;10.57;5.50;;;;;;;;;;3588026;40;20055;-61
2021/07/12 11:07:56;;;;;;;8.17;5.30;;;;;;;;;;3589435;40;20043;-61
2021/07/12 11:10:21;;;;;;;6.88;5.40;;;;;;;;;;3587253;39;20042;-61
2021/07/12 11:12:46;;;;;;;10.83;5.50;;;;;;;;;;3591026;40;20401;-61
2021/07/12 11:15:12;;;;;;;17.07;6.77;;;;;;;;;;3588674;40;20121;-61
2021/07/12 11:17:37;;;;;;;8.60;5.63;;;;;;;;;;3591191;40;20518;-63
2021/07/12 11:20:02;;;;;;;8.30;5.00;;;;;;;;;;3591109;40;20310;-62
2021/07/12 11:22:27;;;;;;;6.17;5.57;;;;;;;;;;3590181;40;20087;-63
2021/07/12 11:24:52;;;;;;;6.27;5.33;;;;;;;;;;3590990;40;20064;-67
2021/07/12 11:27:18;;;;;;;6.07;4.73;;;;;;;;;;3589006;40;20785;-68
2021/07/12 11:29:43;;;;;;;5.77;4.87;;;;;;;;;;3590287;40;20036;-68
2021/07/12 11:32:08;;;;;;;5.33;4.83;;;;;;;;;;3591068;40;20703;-67
2021/07/12 11:34:34;;;;;;;5.53;4.60;;;;;;;;;;3590747;40;20821;-68
2021/07/12 11:36:59;;;;;;;6.63;4.72;;;;;;;;;;3588811;40;20032;-61
2021/07/12 11:39:24;;;;;;;5.77;5.20;;;;;;;;;;3589166;40;20304;-61
2021/07/12 11:41:49;;;;;;;11.83;8.43;;;;;;;;;;3588351;40;20668;-61
2021/07/12 11:44:14;;;;;;;10.33;8.07;;;;;;;;;;3588711;40;20034;-60
2021/07/12 11:46:40;;;;;;;6.87;5.70;;;;;;;;;;3590803;40;20032;-61
2021/07/12 11:49:05;;;;;;;25.92;16.60;;;;;;;;;;3590926;39;20055;-61
2021/07/12 11:51:30;;;;;;;11.20;7.43;;;;;;;;;;3590085;40;20419;-60
2021/07/12 11:53:56;;;;;;;9.10;6.53;;;;;;;;;;3590813;40;20032;-61
2021/07/12 11:56:21;;;;;;;12.00;6.72;;;;;;;;;;3590154;39;20032;-60
2021/07/12 11:58:46;;;;;;;9.60;6.90;;;;;;;;;;3589026;40;20016;-60
2021/07/12 12:01:11;;;;;;;9.47;6.77;;;;;;;;;;3590134;40;20035;-61
2021/07/12 12:03:36;;;;;;;8.17;7.00;;;;;;;;;;3589722;40;20031;-60
2021/07/12 12:06:02;;;;;;;10.73;7.60;;;;;;;;;;3589740;40;20024;-61
2021/07/12 12:08:27;;;;;;;8.63;6.87;;;;;;;;;;3589950;40;20092;-61
2021/07/12 12:10:54;;;;;;;9.30;6.63;;;;;;;;;;3589984;40;20590;-60
2021/07/12 12:13:20;;;;;;;11.10;6.88;;;;;;;;;;3588475;40;20088;-61
2021/07/12 12:15:45;;;;;;;9.87;7.80;;;;;;;;;;3588739;40;20437;-61
2021/07/12 12:18:10;;;;;;;13.63;10.10;;;;;;;;;;3590492;40;20039;-61
2021/07/12 12:20:36;;;;;;;15.57;10.85;;;;;;;;;;3589493;39;20180;-61
2021/07/12 12:23:01;;;;;;;11.77;8.52;;;;;;;;;;3592988;39;20080;-61
2021/07/12 12:25:27;;;;;;;8.90;6.43;;;;;;;;;;3592289;40;20040;-68
2021/07/12 12:27:52;;;;;;;7.90;7.10;;;;;;;;;;3591856;40;20305;-68
2021/07/12 12:30:17;;;;;;;7.07;5.97;;;;;;;;;;3590543;40;20034;-68
2021/07/12 12:32:43;;;;;;;9.57;6.25;;;;;;;;;;3590717;40;20296;-68
2021/07/12 12:35:08;;;;;;;8.17;6.03;;;;;;;;;;3591384;40;20050;-68
2021/07/12 12:37:33;;;;;;;7.13;6.43;;;;;;;;;;3592406;40;20031;-68
2021/07/12 12:39:59;;;;;;;7.50;6.80;;;;;;;;;;3592940;39;20035;-68
2021/07/12 12:42:24;;;;;;;7.40;6.70;;;;;;;;;;3590133;40;20027;-68
2021/07/12 12:44:49;;;;;;;8.80;6.83;;;;;;;;;;3592595;40;20290;-68
2021/07/12 12:47:16;;;;;;;7.45;5.95;;;;;;;;;;3592236;39;20467;-68
2021/07/12 12:49:43;;;;;;;6.50;5.90;;;;;;;;;;3592310;39;20575;-68
2021/07/12 12:52:12;;;;;;;10.55;5.88;;;;;;;;;;3590210;40;20036;-69
2021/07/12 12:54:39;;;;;;;6.90;5.82;;;;;;;;;;3592707;39;20028;-61
2021/07/12 12:57:04;;;;;;;8.50;6.85;;;;;;;;;;3592130;40;20023;-61
2021/07/12 12:59:30;;;;;;;8.93;6.40;;;;;;;;;;3594214;40;20113;-67
2021/07/12 13:01:55;;;;;;;6.75;5.65;;;;;;;;;;3593546;40;20028;-67
2021/07/12 13:04:20;;;;;;;8.03;6.67;;;;;;;;;;3592606;40;20214;-67
2021/07/12 13:06:49;;;;;;;9.67;5.87;;;;;;;;;;3591761;40;20032;-66
2021/07/12 13:09:14;;;;;;;6.18;5.40;;;;;;;;;;3592387;40;20733;-66
2021/07/12 13:11:39;;;;;;;6.57;5.97;;;;;;;;;;3591764;40;20043;-66
2021/07/12 13:14:04;;;;;;;6.73;5.67;;;;;;;;;;3591958;40;20028;-66
2021/07/12 13:16:29;;;;;;;6.50;5.80;;;;;;;;;;3591968;40;20035;-66
2021/07/12 13:18:55;;;;;;;7.67;5.90;;;;;;;;;;3592188;40;20599;-66
2021/07/12 13:21:20;;;;;;;9.27;5.70;;;;;;;;;;3590362;40;20020;-67
2021/07/12 13:23:45;;;;;;;6.67;5.20;;;;;;;;;;3592183;39;20470;-67
2021/07/12 13:26:12;;;;;;;5.93;5.33;;;;;;;;;;3592207;40;20034;-67
2021/07/12 13:28:37;;;;;;;8.40;5.43;;;;;;;;;;3591946;40;20024;-67
2021/07/12 13:31:03;;;;;;;6.67;5.50;;;;;;;;;;3593470;40;20042;-67
2021/07/12 13:33:28;;;;;;;7.03;4.60;;;;;;;;;;3590564;39;20871;-67
2021/07/12 13:35:54;;;;;;;8.10;5.40;;;;;;;;;;3590339;40;20039;-67
2021/07/12 13:38:19;;;;;;;6.20;5.40;;;;;;;;;;3591651;40;20032;-66
2021/07/12 13:40:44;;;;;;;7.00;5.17;;;;;;;;;;3591459;40;20047;-67
2021/07/12 13:43:09;;;;;;;11.03;5.63;;;;;;;;;;3591286;40;20042;-67
2021/07/12 13:45:35;;;;;;;7.85;5.72;;;;;;;;;;3590369;40;20032;-67
2021/07/12 13:48:00;;;;;;;6.80;5.53;;;;;;;;;;3590600;40;20051;-67
2021/07/12 13:50:27;;;;;;;6.87;6.23;;;;;;;;;;3591081;40;20054;-67
2021/07/12 13:52:53;;;;;;;6.40;5.80;;;;;;;;;;3589477;40;20037;-66
2021/07/12 13:55:19;;;;;;;7.63;6.45;;;;;;;;;;3591745;39;20079;-66
2021/07/12 13:57:44;;;;;;;6.67;6.07;;;;;;;;;;3590896;40;20039;-67
2021/07/12 14:00:09;;;;;;;9.70;6.60;;;;;;;;;;3591880;40;20060;-68
2021/07/12 14:02:37;;;;;;;8.77;6.95;;;;;;;;;;3591138;39;20044;-70
2021/07/12 14:05:02;;;;;;;8.10;6.77;;;;;;;;;;3589881;40;20075;-70
2021/07/12 14:07:27;;;;;;;7.63;6.90;;;;;;;;;;3591052;40;20150;-70
2021/07/12 14:09:52;;;;;;;8.10;7.30;;;;;;;;;;3591605;40;20703;-66
2021/07/12 14:12:18;;;;;;;8.90;7.13;;;;;;;;;;3591346;40;20032;-66
2021/07/12 14:14:43;;;;;;;8.73;7.43;;;;;;;;;;3591128;40;20844;-66
2021/07/12 14:17:08;;;;;;;7.50;6.87;;;;;;;;;;3590684;40;20738;-66
2021/07/12 14:19:35;;;;;;;10.23;7.83;;;;;;;;;;3589339;40;20050;-66
2021/07/12 14:22:00;;;;;;;10.35;7.43;;;;;;;;;;3589558;40;20067;-68
2021/07/12 14:24:25;;;;;;;7.80;7.00;;;;;;;;;;3590629;40;20043;-69
2021/07/12 14:26:50;;;;;;;13.83;9.90;;;;;;;;;;3579606;40;20172;-68
2021/07/12 14:29:16;;;;;;;10.13;7.97;;;;;;;;;;3590510;40;20021;-68
2021/07/12 14:31:41;;;;;;;11.30;7.17;;;;;;;;;;3588731;40;20116;-68